createdAt,value
2018-05-08T00:00:08.716Z,16.00
2018-05-08T00:02:37.115Z,15.96
2018-05-08T00:05:05.609Z,15.94
2018-05-08T00:07:34.011Z,15.99
2018-05-08T00:10:02.505Z,16.05
2018-05-08T00:12:30.935Z,16.03
2018-05-08T00:14:59.342Z,16.30
2018-05-08T00:17:27.779Z,16.24
2018-05-08T00:19:56.192Z,16.38
2018-05-08T00:22:24.616Z,16.28
2018-05-08T00:24:53.018Z,16.30
2018-05-08T00:27:21.458Z,16.30
2018-05-08T00:29:49.869Z,16.17
2018-05-08T00:32:18.319Z,16.23
2018-05-08T00:34:46.724Z,16.17
2018-05-08T00:37:15.152Z,16.37
2018-05-08T00:39:43.614Z,16.10
2018-05-08T00:42:12.002Z,16.20
2018-05-08T00:44:40.396Z,16.12
2018-05-08T00:47:08.847Z,16.21
2018-05-08T00:49:37.306Z,16.17
2018-05-08T00:52:05.791Z,16.34
2018-05-08T00:54:45.976Z,16.37
2018-05-08T00:57:14.378Z,16.32
2018-05-08T00:59:42.813Z,16.19
2018-05-08T01:02:11.247Z,16.39
2018-05-08T01:04:39.688Z,16.53
2018-05-08T01:07:08.098Z,16.16
2018-05-08T01:09:36.552Z,16.45
2018-05-08T01:12:04.990Z,16.47
2018-05-08T01:14:33.448Z,16.59
2018-05-08T01:17:01.907Z,16.46
2018-05-08T01:19:30.386Z,16.35
2018-05-08T01:21:58.894Z,16.34
2018-05-08T01:24:27.328Z,16.14
2018-05-08T01:26:55.789Z,16.06
2018-05-08T01:29:24.226Z,16.18
2018-05-08T01:31:52.676Z,16.11
2018-05-08T01:34:21.122Z,15.81
2018-05-08T01:36:49.571Z,16.02
2018-05-08T01:39:17.967Z,16.09
2018-05-08T01:41:46.379Z,15.96
2018-05-08T01:44:14.900Z,16.02
2018-05-08T01:46:43.326Z,15.82
2018-05-08T01:49:11.779Z,15.73
2018-05-08T01:51:40.229Z,15.49
2018-05-08T01:54:08.675Z,15.34
2018-05-08T01:56:37.086Z,15.45
2018-05-08T01:59:05.520Z,15.49
2018-05-08T02:01:34.107Z,15.29
2018-05-08T02:04:02.544Z,15.16
2018-05-08T02:06:31.060Z,15.22
2018-05-08T02:08:59.450Z,15.22
2018-05-08T02:11:27.960Z,15.22
2018-05-08T02:13:56.392Z,15.59
2018-05-08T02:16:24.845Z,15.46
2018-05-08T02:18:54.016Z,15.27
2018-05-08T02:21:22.409Z,15.07
2018-05-08T02:23:50.955Z,15.04
2018-05-08T02:26:19.352Z,15.23
2018-05-08T02:28:47.820Z,15.28
2018-05-08T02:31:16.257Z,15.09
2018-05-08T02:33:44.718Z,15.35
2018-05-08T02:36:13.105Z,15.45
2018-05-08T02:38:41.555Z,15.28
2018-05-08T02:41:09.964Z,15.48
2018-05-08T02:43:38.394Z,15.35
2018-05-08T02:46:06.821Z,15.59
2018-05-08T02:48:35.332Z,15.77
2018-05-08T02:51:03.719Z,15.78
2018-05-08T02:53:32.171Z,15.81
2018-05-08T02:56:00.595Z,15.65
2018-05-08T02:58:28.973Z,15.55
2018-05-08T03:00:57.374Z,15.42
2018-05-08T03:03:25.818Z,15.68
2018-05-08T03:05:54.283Z,15.48
2018-05-08T03:08:22.688Z,15.55
2018-05-08T03:10:51.155Z,15.85
2018-05-08T03:13:19.600Z,15.58
2018-05-08T03:15:48.236Z,15.50
2018-05-08T03:18:16.739Z,15.46
2018-05-08T03:20:45.152Z,15.64
2018-05-08T03:23:13.599Z,15.70
2018-05-08T03:25:41.998Z,15.52
2018-05-08T03:28:10.477Z,15.39
2018-05-08T03:30:38.913Z,15.39
2018-05-08T03:33:07.390Z,15.41
2018-05-08T03:35:35.794Z,15.41
2018-05-08T03:38:04.232Z,15.55
2018-05-08T03:40:32.661Z,15.45
2018-05-08T03:43:01.059Z,15.29
2018-05-08T03:45:29.507Z,15.40
2018-05-08T03:47:57.929Z,15.45
2018-05-08T03:50:26.379Z,15.45
2018-05-08T03:52:54.783Z,15.46
2018-05-08T03:55:23.179Z,15.35
2018-05-08T03:57:51.610Z,15.47
2018-05-08T04:00:31.936Z,15.57
2018-05-08T04:03:12.183Z,15.85
2018-05-08T04:05:50.572Z,15.79
2018-05-08T04:08:37.471Z,16.07
2018-05-08T04:11:05.908Z,16.22
2018-05-08T04:13:34.456Z,16.10
2018-05-08T04:16:02.884Z,16.22
2018-05-08T04:18:31.339Z,16.16
2018-05-08T04:20:59.812Z,16.21
2018-05-08T04:23:28.295Z,16.39
2018-05-08T04:25:56.691Z,16.40
2018-05-08T04:28:25.099Z,16.58
2018-05-08T04:30:53.547Z,16.40
2018-05-08T04:33:21.975Z,16.68
2018-05-08T04:35:50.427Z,16.87
2018-05-08T04:38:18.861Z,16.33
2018-05-08T04:40:47.376Z,16.09
2018-05-08T04:43:16.508Z,15.99
2018-05-08T04:45:44.924Z,15.99
2018-05-08T04:48:13.405Z,15.76
2018-05-08T04:50:41.834Z,16.37
2018-05-08T04:53:10.317Z,16.28
2018-05-08T04:55:38.761Z,16.40
2018-05-08T04:58:07.161Z,16.36
2018-05-08T05:00:35.688Z,16.15
2018-05-08T05:03:04.127Z,16.21
2018-05-08T05:05:32.550Z,16.25
2018-05-08T05:08:01.020Z,16.45
2018-05-08T05:10:29.445Z,16.44
2018-05-08T05:12:57.885Z,16.60
2018-05-08T05:15:26.364Z,16.68
2018-05-08T05:17:54.882Z,16.69
2018-05-08T05:20:23.287Z,16.75
2018-05-08T05:22:51.688Z,16.87
2018-05-08T05:25:20.375Z,16.69
2018-05-08T05:27:48.878Z,16.50
2018-05-08T05:30:17.288Z,16.76
2018-05-08T05:32:45.721Z,16.75
2018-05-08T05:35:14.135Z,16.90
2018-05-08T05:37:42.612Z,17.01
2018-05-08T05:40:11.016Z,17.09
2018-05-08T05:42:39.626Z,17.31
2018-05-08T05:45:08.087Z,17.03
2018-05-08T05:47:36.561Z,16.94
2018-05-08T05:50:04.964Z,17.45
2018-05-08T05:52:33.395Z,17.25
2018-05-08T05:55:01.841Z,17.61
2018-05-08T05:57:30.267Z,17.53
2018-05-08T05:59:58.759Z,17.77
2018-05-08T06:02:27.146Z,18.10
2018-05-08T06:04:55.676Z,18.49
2018-05-08T06:07:24.095Z,18.06
2018-05-08T06:09:52.601Z,18.08
2018-05-08T06:12:21.089Z,17.94
2018-05-08T06:14:49.497Z,18.61
2018-05-08T06:17:17.960Z,18.75
2018-05-08T06:19:46.366Z,19.11
2018-05-08T06:22:14.883Z,19.16
2018-05-08T06:24:43.288Z,19.33
2018-05-08T06:27:11.707Z,18.99
2018-05-08T06:29:40.153Z,19.16
2018-05-08T06:32:08.565Z,18.86
2018-05-08T06:34:36.980Z,18.88
2018-05-08T06:37:05.428Z,18.87
2018-05-08T06:39:33.852Z,18.62
2018-05-08T06:42:02.369Z,18.88
2018-05-08T06:44:30.803Z,19.20
2018-05-08T06:46:59.305Z,19.20
2018-05-08T06:49:27.727Z,19.36
2018-05-08T06:51:56.127Z,19.62
2018-05-08T06:54:24.600Z,19.42
2018-05-08T06:56:53.015Z,20.22
2018-05-08T06:59:21.414Z,20.74
2018-05-08T07:01:49.846Z,20.79
2018-05-08T07:04:18.241Z,21.50
2018-05-08T07:06:46.678Z,21.86
2018-05-08T07:09:15.193Z,22.01
2018-05-08T07:11:43.583Z,21.72
2018-05-08T07:14:12.000Z,21.78
2018-05-08T07:16:40.444Z,21.10
2018-05-08T07:19:08.843Z,20.77
2018-05-08T07:21:37.260Z,20.64
2018-05-08T07:24:05.804Z,20.25
2018-05-08T07:26:34.194Z,20.48
2018-05-08T07:29:02.629Z,19.91
2018-05-08T07:31:31.060Z,19.44
2018-05-08T07:33:59.450Z,19.21
2018-05-08T07:36:28.128Z,19.36
2018-05-08T07:38:56.535Z,19.21
2018-05-08T07:41:25.017Z,19.53
2018-05-08T07:43:53.619Z,19.49
2018-05-08T07:46:22.004Z,19.96
2018-05-08T07:48:50.540Z,20.55
2018-05-08T07:51:18.912Z,20.82
2018-05-08T07:53:47.358Z,20.62
2018-05-08T07:56:15.756Z,20.80
2018-05-08T07:58:44.223Z,20.67
2018-05-08T08:01:12.624Z,21.35
2018-05-08T08:03:41.074Z,20.67
2018-05-08T08:06:09.583Z,20.83
2018-05-08T08:08:37.976Z,20.90
2018-05-08T08:11:06.430Z,20.31
2018-05-08T08:13:34.827Z,20.04
2018-05-08T08:16:03.314Z,20.63
2018-05-08T08:18:31.839Z,21.09
2018-05-08T08:21:00.228Z,21.01
2018-05-08T08:23:28.658Z,21.24
2018-05-08T08:25:57.039Z,21.36
2018-05-08T08:28:25.458Z,21.87
2018-05-08T08:30:53.873Z,21.69
2018-05-08T08:33:22.291Z,21.28
2018-05-08T08:35:50.696Z,21.20
2018-05-08T08:38:19.140Z,20.64
2018-05-08T08:40:47.614Z,20.66
2018-05-08T08:43:16.043Z,20.84
2018-05-08T08:45:44.484Z,21.12
2018-05-08T08:48:12.892Z,21.99
2018-05-08T08:50:41.282Z,22.11
2018-05-08T08:53:09.707Z,23.11
2018-05-08T08:55:38.092Z,22.37
2018-05-08T08:58:06.482Z,20.99
2018-05-08T09:00:34.940Z,20.52
2018-05-08T09:03:03.356Z,20.44
2018-05-08T09:05:31.803Z,20.90
2018-05-08T09:08:00.226Z,21.23
2018-05-08T09:10:28.643Z,22.01
2018-05-08T09:12:57.047Z,22.63
2018-05-08T09:15:25.483Z,23.17
2018-05-08T09:17:53.988Z,23.48
2018-05-08T09:20:22.391Z,23.26
2018-05-08T09:22:50.872Z,23.80
2018-05-08T09:25:19.300Z,23.81
2018-05-08T09:27:47.762Z,22.08
2018-05-08T09:30:16.185Z,21.85
2018-05-08T09:32:44.618Z,21.93
2018-05-08T09:35:13.112Z,22.50
2018-05-08T09:37:41.584Z,23.37
2018-05-08T09:40:10.023Z,23.62
2018-05-08T09:42:38.403Z,22.85
2018-05-08T09:45:06.799Z,23.05
2018-05-08T09:47:35.241Z,22.61
2018-05-08T09:50:03.711Z,22.31
2018-05-08T09:52:32.131Z,22.45
2018-05-08T09:55:00.516Z,22.17
2018-05-08T09:57:28.946Z,22.54
2018-05-08T09:59:57.359Z,23.02
2018-05-08T10:02:25.760Z,23.74
2018-05-08T10:04:54.334Z,23.71
2018-05-08T10:07:22.727Z,24.06
2018-05-08T10:09:51.264Z,23.13
2018-05-08T10:12:19.687Z,22.88
2018-05-08T10:14:48.096Z,23.90
2018-05-08T10:17:16.706Z,22.99
2018-05-08T10:19:45.120Z,22.95
2018-05-08T10:22:13.548Z,23.27
2018-05-08T10:24:41.923Z,23.69
2018-05-08T10:27:10.357Z,23.06
2018-05-08T10:29:38.783Z,23.30
2018-05-08T10:32:07.262Z,23.25
2018-05-08T10:34:35.667Z,23.34
2018-05-08T10:37:04.071Z,23.59
2018-05-08T10:39:32.503Z,23.82
2018-05-08T10:42:01.012Z,24.07
2018-05-08T10:44:29.483Z,23.92
2018-05-08T10:46:57.909Z,24.17
2018-05-08T10:49:26.293Z,24.72
2018-05-08T10:51:54.763Z,24.37
2018-05-08T10:54:23.191Z,23.38
2018-05-08T10:56:51.584Z,23.98
2018-05-08T10:59:20.070Z,24.89
2018-05-08T11:01:48.537Z,24.61
2018-05-08T11:04:16.941Z,25.13
2018-05-08T11:06:45.346Z,25.03
2018-05-08T11:09:13.767Z,25.04
2018-05-08T11:11:42.160Z,24.69
2018-05-08T11:14:10.603Z,24.91
2018-05-08T11:16:39.124Z,25.10
2018-05-08T11:19:07.526Z,25.68
2018-05-08T11:21:35.946Z,25.69
2018-05-08T11:24:04.445Z,25.77
2018-05-08T11:26:32.978Z,24.79
2018-05-08T11:29:01.336Z,25.51
2018-05-08T11:31:29.765Z,25.71
2018-05-08T11:33:58.354Z,25.46
2018-05-08T11:36:26.744Z,26.19
2018-05-08T11:38:55.148Z,25.87
2018-05-08T11:41:23.604Z,25.81
2018-05-08T11:43:51.992Z,25.78
2018-05-08T11:46:20.420Z,25.20
2018-05-08T11:48:48.821Z,25.74
2018-05-08T11:51:17.217Z,26.91
2018-05-08T11:53:45.723Z,25.70
2018-05-08T11:56:14.102Z,26.71
2018-05-08T11:58:42.604Z,26.82
2018-05-08T12:01:11.013Z,25.87
2018-05-08T12:03:39.527Z,25.76
2018-05-08T12:06:07.972Z,26.72
2018-05-08T12:08:36.366Z,26.87
2018-05-08T12:11:04.792Z,26.84
2018-05-08T12:13:33.243Z,26.59
2018-05-08T12:16:01.674Z,26.07
2018-05-08T12:18:30.099Z,26.89
2018-05-08T12:20:58.543Z,26.98
2018-05-08T12:23:27.012Z,26.76
2018-05-08T12:25:55.420Z,27.70
2018-05-08T12:28:23.839Z,27.07
2018-05-08T12:30:52.249Z,26.95
2018-05-08T12:33:20.646Z,27.43
2018-05-08T12:35:49.067Z,28.28
2018-05-08T12:38:17.463Z,27.15
2018-05-08T12:40:45.894Z,27.53
2018-05-08T12:43:14.288Z,27.60
2018-05-08T12:45:42.735Z,28.19
2018-05-08T12:48:11.128Z,27.67
2018-05-08T12:50:39.527Z,27.58
2018-05-08T12:53:07.959Z,26.58
2018-05-08T12:55:36.370Z,28.17
2018-05-08T12:58:04.905Z,29.80
2018-05-08T13:00:33.292Z,29.82
2018-05-08T13:03:01.737Z,29.36
2018-05-08T13:05:30.355Z,30.13
2018-05-08T13:07:58.797Z,28.20
2018-05-08T13:10:27.269Z,29.11
2018-05-08T13:12:55.724Z,29.99
2018-05-08T13:15:24.171Z,28.07
2018-05-08T13:17:52.551Z,29.62
2018-05-08T13:20:20.984Z,30.08
2018-05-08T13:22:49.377Z,30.81
2018-05-08T13:25:17.834Z,27.86
2018-05-08T13:27:46.243Z,27.70
2018-05-08T13:30:14.639Z,28.59
2018-05-08T13:32:43.122Z,28.04
2018-05-08T13:35:11.672Z,29.97
2018-05-08T13:37:40.682Z,30.21
2018-05-08T13:40:09.167Z,29.14
2018-05-08T13:42:37.913Z,31.09
2018-05-08T13:45:06.856Z,31.79
2018-05-08T13:47:35.300Z,29.93
2018-05-08T13:50:03.803Z,29.16
2018-05-08T13:52:32.316Z,29.93
2018-05-08T13:55:00.931Z,31.94
2018-05-08T13:57:31.323Z,34.05
2018-05-08T14:00:00.018Z,34.63
2018-05-08T14:02:28.455Z,34.60
2018-05-08T14:04:56.923Z,35.59
2018-05-08T14:07:25.322Z,36.02
2018-05-08T14:09:54.453Z,35.66
2018-05-08T14:12:23.004Z,35.26
2018-05-08T14:14:51.405Z,36.75
2018-05-08T14:17:19.983Z,37.26
2018-05-08T14:19:48.403Z,33.80
2018-05-08T14:22:17.036Z,32.89
2018-05-08T14:24:45.601Z,33.46
2018-05-08T14:27:14.043Z,34.39
2018-05-08T14:29:42.428Z,33.34
2018-05-08T14:32:10.860Z,31.65
2018-05-08T14:34:39.263Z,29.97
2018-05-08T14:37:07.737Z,29.38
2018-05-08T14:39:36.187Z,28.30
2018-05-08T14:42:04.652Z,28.69
2018-05-08T14:44:33.167Z,28.55
2018-05-08T14:47:01.698Z,29.34
2018-05-08T14:49:30.132Z,28.60
2018-05-08T14:51:58.535Z,27.57
2018-05-08T14:54:26.970Z,27.08
2018-05-08T14:56:55.395Z,26.72
2018-05-08T14:59:23.855Z,26.84
2018-05-08T15:01:52.250Z,26.89
2018-05-08T15:04:20.809Z,26.85
2018-05-08T15:06:49.280Z,26.75
2018-05-08T15:09:17.698Z,26.98
2018-05-08T15:11:46.114Z,26.95
2018-05-08T15:14:14.536Z,26.03
2018-05-08T15:16:44.031Z,26.50
2018-05-08T15:19:12.461Z,26.32
2018-05-08T15:21:40.958Z,26.67
2018-05-08T15:24:09.370Z,26.39
2018-05-08T15:26:37.791Z,26.56
2018-05-08T15:29:06.205Z,26.31
2018-05-08T15:31:34.646Z,25.64
2018-05-08T15:34:03.195Z,26.14
2018-05-08T15:36:31.663Z,26.37
2018-05-08T15:39:00.055Z,26.20
2018-05-08T15:41:28.512Z,25.99
2018-05-08T15:43:56.917Z,26.04
2018-05-08T15:46:25.366Z,25.47
2018-05-08T15:48:53.898Z,25.64
2018-05-08T15:51:22.295Z,25.94
2018-05-08T15:53:50.727Z,25.48
2018-05-08T15:56:19.111Z,25.60
2018-05-08T15:58:48.631Z,25.84
2018-05-08T16:01:17.032Z,27.45
2018-05-08T16:03:45.515Z,27.39
2018-05-08T16:06:14.011Z,27.57
2018-05-08T16:08:42.466Z,26.86
2018-05-08T16:11:10.856Z,27.00
2018-05-08T16:13:39.272Z,28.10
2018-05-08T16:16:07.676Z,29.11
2018-05-08T16:18:36.319Z,29.82
2018-05-08T16:21:04.722Z,29.00
2018-05-08T16:23:33.176Z,29.06
2018-05-08T16:26:01.565Z,30.07
2018-05-08T16:28:29.995Z,30.73
2018-05-08T16:30:58.408Z,30.83
2018-05-08T16:33:26.826Z,30.91
2018-05-08T16:35:55.208Z,31.60
2018-05-08T16:38:23.659Z,32.18
2018-05-08T16:40:52.076Z,32.18
2018-05-08T16:43:21.447Z,32.51
2018-05-08T16:45:49.870Z,31.84
2018-05-08T16:48:18.519Z,31.14
2018-05-08T16:50:46.945Z,31.33
2018-05-08T16:53:15.437Z,30.41
2018-05-08T16:55:43.890Z,29.11
2018-05-08T16:58:12.375Z,28.63
2018-05-08T17:00:40.946Z,28.38
2018-05-08T17:03:09.402Z,28.37
2018-05-08T17:05:37.852Z,28.04
2018-05-08T17:08:06.302Z,28.30
2018-05-08T17:10:34.834Z,28.00
2018-05-08T17:13:03.257Z,26.32
2018-05-08T17:15:31.716Z,25.12
2018-05-08T17:18:00.142Z,24.61
2018-05-08T17:20:28.548Z,24.34
2018-05-08T17:22:56.992Z,23.96
2018-05-08T17:25:25.440Z,23.42
2018-05-08T17:27:53.851Z,23.00
2018-05-08T17:30:22.271Z,22.78
2018-05-08T17:32:50.819Z,22.52
2018-05-08T17:35:19.206Z,22.48
2018-05-08T17:37:47.607Z,22.18
2018-05-08T17:40:16.035Z,22.21
2018-05-08T17:42:44.410Z,22.11
2018-05-08T17:45:12.862Z,22.02
2018-05-08T17:47:41.332Z,21.91
2018-05-08T17:50:09.770Z,21.81
2018-05-08T17:52:38.228Z,21.40
2018-05-08T17:55:06.800Z,21.39
2018-05-08T17:57:35.288Z,21.70
2018-05-08T18:00:03.742Z,21.73
2018-05-08T18:02:32.216Z,21.57
2018-05-08T18:05:00.704Z,21.79
2018-05-08T18:07:29.111Z,21.69
2018-05-08T18:09:57.555Z,21.06
2018-05-08T18:12:25.970Z,21.57
2018-05-08T18:14:54.386Z,21.60
2018-05-08T18:17:23.052Z,21.68
2018-05-08T18:19:51.453Z,21.56
2018-05-08T18:22:19.899Z,21.73
2018-05-08T18:24:48.335Z,21.63
2018-05-08T18:27:16.759Z,21.65
2018-05-08T18:29:45.176Z,21.41
2018-05-08T18:32:13.567Z,21.09
2018-05-08T18:34:42.020Z,21.17
2018-05-08T18:37:10.440Z,21.10
2018-05-08T18:39:38.893Z,21.07
2018-05-08T18:42:07.315Z,21.05
2018-05-08T18:44:35.735Z,20.80
2018-05-08T18:47:04.197Z,20.54
2018-05-08T18:49:32.760Z,20.51
2018-05-08T18:52:01.071Z,20.25
2018-05-08T18:54:29.512Z,20.16
2018-05-08T18:56:58.029Z,20.13
2018-05-08T18:59:26.474Z,19.95
2018-05-08T19:01:54.884Z,19.97
2018-05-08T19:04:23.325Z,19.83
2018-05-08T19:06:51.815Z,19.68
2018-05-08T19:09:20.458Z,19.57
2018-05-08T19:11:48.828Z,19.58
2018-05-08T19:14:17.284Z,19.64
2018-05-08T19:16:45.781Z,19.73
2018-05-08T19:19:20.168Z,19.73
2018-05-08T19:21:49.647Z,19.49
2018-05-08T19:24:24.274Z,18.95
2018-05-08T19:26:53.744Z,19.18
2018-05-08T19:29:28.319Z,18.72
2018-05-08T19:31:57.885Z,18.71
2018-05-08T19:34:32.539Z,18.88
2018-05-08T19:37:07.266Z,18.76
2018-05-08T19:39:36.030Z,18.62
2018-05-08T19:42:04.551Z,18.43
2018-05-08T19:44:33.240Z,18.61
2018-05-08T19:47:01.626Z,18.29
2018-05-08T19:49:30.047Z,18.45
2018-05-08T19:51:58.992Z,18.27
2018-05-08T19:54:27.371Z,17.82
2018-05-08T19:56:55.770Z,17.92
2018-05-08T19:59:24.438Z,17.80
2018-05-08T20:01:52.826Z,17.70
2018-05-08T20:04:21.234Z,17.66
2018-05-08T20:06:50.001Z,17.78
2018-05-08T20:09:18.398Z,17.71
2018-05-08T20:11:46.829Z,17.31
2018-05-08T20:14:15.662Z,17.22
2018-05-08T20:16:44.101Z,17.04
2018-05-08T20:19:12.523Z,17.39
2018-05-08T20:21:41.184Z,17.07
2018-05-08T20:24:09.760Z,17.00
2018-05-08T20:26:38.175Z,16.96
2018-05-08T20:29:06.837Z,16.94
2018-05-08T20:31:35.236Z,16.79
2018-05-08T20:34:03.718Z,16.54
2018-05-08T20:36:32.513Z,16.49
2018-05-08T20:39:00.882Z,16.40
2018-05-08T20:41:29.326Z,16.52
2018-05-08T20:43:58.043Z,16.47
2018-05-08T20:46:26.441Z,16.23
2018-05-08T20:48:54.852Z,16.19
2018-05-08T20:51:23.597Z,16.31
2018-05-08T20:53:51.980Z,16.27
2018-05-08T20:56:20.354Z,16.33
2018-05-08T20:58:48.937Z,16.46
2018-05-08T21:01:17.389Z,16.37
2018-05-08T21:03:45.801Z,16.14
2018-05-08T21:06:14.568Z,15.96
2018-05-08T21:08:42.990Z,15.74
2018-05-08T21:11:11.417Z,15.73
2018-05-08T21:13:39.832Z,15.80
2018-05-08T21:16:08.231Z,15.82
2018-05-08T21:18:36.620Z,15.76
2018-05-08T21:21:05.474Z,15.79
2018-05-08T21:23:33.883Z,15.90
2018-05-08T21:26:02.268Z,15.87
2018-05-08T21:28:36.717Z,15.70
2018-05-08T21:31:10.873Z,15.55
2018-05-08T21:33:39.710Z,15.74
2018-05-08T21:36:08.180Z,15.78
2018-05-08T21:38:37.446Z,15.74
2018-05-08T21:41:06.226Z,15.90
2018-05-08T21:43:34.653Z,15.53
2018-05-08T21:46:03.028Z,15.58
2018-05-08T21:48:31.486Z,15.39
2018-05-08T21:50:59.873Z,15.49
2018-05-08T21:53:28.292Z,15.22
2018-05-08T21:55:57.000Z,15.08
2018-05-08T21:58:25.411Z,15.07
2018-05-08T22:00:53.777Z,14.82
2018-05-08T22:03:22.563Z,14.40
2018-05-08T22:05:50.951Z,14.95
2018-05-08T22:08:19.369Z,14.96
2018-05-08T22:10:47.868Z,15.02
2018-05-08T22:13:16.281Z,14.86
2018-05-08T22:15:44.677Z,14.89
2018-05-08T22:18:13.348Z,14.92
2018-05-08T22:20:41.729Z,14.96
2018-05-08T22:23:10.275Z,14.98
2018-05-08T22:25:39.003Z,14.93
2018-05-08T22:28:07.416Z,14.96
2018-05-08T22:30:35.818Z,15.02
2018-05-08T22:33:04.654Z,14.93
2018-05-08T22:35:33.057Z,14.90
2018-05-08T22:38:01.451Z,14.75
2018-05-08T22:40:29.881Z,14.92
2018-05-08T22:42:58.228Z,14.83
2018-05-08T22:45:26.618Z,14.72
2018-05-08T22:47:55.260Z,14.77
2018-05-08T22:50:23.850Z,14.65
2018-05-08T22:52:52.503Z,14.61
2018-05-08T22:55:21.011Z,14.64
2018-05-08T22:57:49.404Z,14.69
2018-05-08T23:00:17.811Z,14.65
2018-05-08T23:02:46.134Z,14.56
2018-05-08T23:05:14.505Z,14.56
2018-05-08T23:07:42.986Z,14.58
2018-05-08T23:10:11.783Z,14.47
2018-05-08T23:12:40.196Z,14.43
2018-05-08T23:15:08.575Z,14.17
2018-05-08T23:17:37.102Z,14.23
2018-05-08T23:20:05.515Z,14.37
2018-05-08T23:22:33.915Z,14.23
2018-05-08T23:25:02.580Z,14.23
2018-05-08T23:27:30.962Z,14.13
2018-05-08T23:29:59.352Z,14.07
2018-05-08T23:32:28.223Z,13.91
2018-05-08T23:34:56.615Z,13.95
2018-05-08T23:37:24.999Z,13.89
2018-05-08T23:39:53.783Z,13.93
2018-05-08T23:42:22.183Z,13.66
2018-05-08T23:44:50.568Z,13.95
2018-05-08T23:47:19.312Z,13.77
2018-05-08T23:49:47.711Z,13.83
2018-05-08T23:52:16.106Z,13.67
2018-05-08T23:54:44.752Z,13.41
2018-05-08T23:57:13.163Z,13.60
2018-05-08T23:59:41.570Z,13.54
